sensor_id;sensor_type;location;lat;lon;timestamp;temperature;humidity
16879;DHT22;8556;52.218;9.884;2023-02-13T00:00:03;6.90;99.90
16879;DHT22;8556;52.218;9.884;2023-02-13T00:02:30;6.90;99.90
16879;DHT22;8556;52.218;9.884;2023-02-13T00:04:57;6.80;99.90
16879;DHT22;8556;52.218;9.884;2023-02-13T00:07:24;6.80;99.90
16879;DHT22;8556;52.218;9.884;2023-02-13T00:09:51;6.80;99.90
16879;DHT22;8556;52.218;9.884;2023-02-13T00:12:19;6.90;99.90
16879;DHT22;8556;52.218;9.884;2023-02-13T00:14:45;6.90;99.90
16879;DHT22;8556;52.218;9.884;2023-02-13T00:17:12;6.90;99.90
16879;DHT22;8556;52.218;9.884;2023-02-13T00:19:39;6.80;99.90
16879;DHT22;8556;52.218;9.884;2023-02-13T00:22:06;6.80;99.90
16879;DHT22;8556;52.218;9.884;2023-02-13T00:24:33;6.80;99.90
16879;DHT22;8556;52.218;9.884;2023-02-13T00:26:59;6.80;99.90
16879;DHT22;8556;52.218;9.884;2023-02-13T00:29:27;6.80;99.90
16879;DHT22;8556;52.218;9.884;2023-02-13T00:31:54;6.90;99.90
16879;DHT22;8556;52.218;9.884;2023-02-13T00:34:21;6.90;99.90
16879;DHT22;8556;52.218;9.884;2023-02-13T00:36:48;6.90;99.90
16879;DHT22;8556;52.218;9.884;2023-02-13T00:39:16;6.90;99.90
16879;DHT22;8556;52.218;9.884;2023-02-13T00:41:42;6.90;99.90
16879;DHT22;8556;52.218;9.884;2023-02-13T00:44:10;6.90;99.90
16879;DHT22;8556;52.218;9.884;2023-02-13T00:46:38;6.90;99.90
16879;DHT22;8556;52.218;9.884;2023-02-13T00:49:06;6.80;99.90
16879;DHT22;8556;52.218;9.884;2023-02-13T00:51:33;6.70;99.90
16879;DHT22;8556;52.218;9.884;2023-02-13T00:53:59;6.70;99.90
16879;DHT22;8556;52.218;9.884;2023-02-13T00:56:27;6.80;99.90
16879;DHT22;8556;52.218;9.884;2023-02-13T00:58:53;6.80;99.90
16879;DHT22;8556;52.218;9.884;2023-02-13T01:01:20;6.80;99.90
16879;DHT22;8556;52.218;9.884;2023-02-13T01:03:48;6.80;99.90
16879;DHT22;8556;52.218;9.884;2023-02-13T01:06:15;6.80;99.90
16879;DHT22;8556;52.218;9.884;2023-02-13T01:08:42;6.80;99.90
16879;DHT22;8556;52.218;9.884;2023-02-13T01:11:09;6.80;99.90
16879;DHT22;8556;52.218;9.884;2023-02-13T01:13:35;6.80;99.90
16879;DHT22;8556;52.218;9.884;2023-02-13T01:16:02;6.80;99.90
16879;DHT22;8556;52.218;9.884;2023-02-13T01:18:29;6.80;99.90
16879;DHT22;8556;52.218;9.884;2023-02-13T01:20:59;6.90;99.90
16879;DHT22;8556;52.218;9.884;2023-02-13T01:23:29;6.80;99.90
16879;DHT22;8556;52.218;9.884;2023-02-13T01:25:56;6.90;99.90
16879;DHT22;8556;52.218;9.884;2023-02-13T01:28:23;6.90;99.90
16879;DHT22;8556;52.218;9.884;2023-02-13T01:30:53;6.80;99.90
16879;DHT22;8556;52.218;9.884;2023-02-13T01:33:20;6.80;99.90
16879;DHT22;8556;52.218;9.884;2023-02-13T01:35:47;6.80;99.90
16879;DHT22;8556;52.218;9.884;2023-02-13T01:38:16;6.70;99.90
16879;DHT22;8556;52.218;9.884;2023-02-13T01:40:46;6.90;99.90
16879;DHT22;8556;52.218;9.884;2023-02-13T01:43:13;6.90;99.90
16879;DHT22;8556;52.218;9.884;2023-02-13T01:45:41;6.80;99.90
16879;DHT22;8556;52.218;9.884;2023-02-13T01:48:14;6.70;99.90
16879;DHT22;8556;52.218;9.884;2023-02-13T01:50:43;6.80;99.90
16879;DHT22;8556;52.218;9.884;2023-02-13T01:53:13;6.80;99.90
16879;DHT22;8556;52.218;9.884;2023-02-13T01:55:47;6.90;99.90
16879;DHT22;8556;52.218;9.884;2023-02-13T01:58:18;6.90;99.90
16879;DHT22;8556;52.218;9.884;2023-02-13T02:00:46;6.90;99.90
16879;DHT22;8556;52.218;9.884;2023-02-13T02:03:18;6.90;99.90
16879;DHT22;8556;52.218;9.884;2023-02-13T02:05:46;6.90;99.90
16879;DHT22;8556;52.218;9.884;2023-02-13T02:08:14;6.90;99.90
16879;DHT22;8556;52.218;9.884;2023-02-13T02:10:43;6.90;99.90
16879;DHT22;8556;52.218;9.884;2023-02-13T02:13:12;7.00;99.90
16879;DHT22;8556;52.218;9.884;2023-02-13T02:15:40;6.90;99.90
16879;DHT22;8556;52.218;9.884;2023-02-13T02:18:13;6.90;99.90
16879;DHT22;8556;52.218;9.884;2023-02-13T02:21:04;7.00;99.90
16879;DHT22;8556;52.218;9.884;2023-02-13T02:23:56;7.00;99.90
16879;DHT22;8556;52.218;9.884;2023-02-13T02:26:53;6.90;99.90
16879;DHT22;8556;52.218;9.884;2023-02-13T02:35:35;6.90;99.90
16879;DHT22;8556;52.218;9.884;2023-02-13T02:38:23;7.00;99.90
16879;DHT22;8556;52.218;9.884;2023-02-13T02:40:58;6.90;99.90
16879;DHT22;8556;52.218;9.884;2023-02-13T02:43:42;7.00;99.90
16879;DHT22;8556;52.218;9.884;2023-02-13T02:46:15;7.00;99.90
16879;DHT22;8556;52.218;9.884;2023-02-13T02:48:49;7.00;99.90
16879;DHT22;8556;52.218;9.884;2023-02-13T02:51:40;6.90;99.90
16879;DHT22;8556;52.218;9.884;2023-02-13T02:54:14;6.90;99.90
16879;DHT22;8556;52.218;9.884;2023-02-13T02:57:04;6.80;99.90
16879;DHT22;8556;52.218;9.884;2023-02-13T02:59:35;6.80;99.90
16879;DHT22;8556;52.218;9.884;2023-02-13T03:02:21;6.90;99.90
16879;DHT22;8556;52.218;9.884;2023-02-13T03:05:16;7.00;99.90
16879;DHT22;8556;52.218;9.884;2023-02-13T03:08:02;7.00;99.90
16879;DHT22;8556;52.218;9.884;2023-02-13T03:10:31;7.00;99.90
16879;DHT22;8556;52.218;9.884;2023-02-13T03:13:32;7.00;99.90
16879;DHT22;8556;52.218;9.884;2023-02-13T03:16:00;6.90;99.90
16879;DHT22;8556;52.218;9.884;2023-02-13T03:18:46;6.90;99.90
16879;DHT22;8556;52.218;9.884;2023-02-13T03:21:43;6.90;99.90
16879;DHT22;8556;52.218;9.884;2023-02-13T03:24:38;6.80;99.90
16879;DHT22;8556;52.218;9.884;2023-02-13T03:27:09;6.80;99.90
16879;DHT22;8556;52.218;9.884;2023-02-13T03:29:43;6.90;99.90
16879;DHT22;8556;52.218;9.884;2023-02-13T03:32:33;6.90;99.90
16879;DHT22;8556;52.218;9.884;2023-02-13T03:35:15;6.80;99.90
16879;DHT22;8556;52.218;9.884;2023-02-13T03:38:10;6.70;99.90
16879;DHT22;8556;52.218;9.884;2023-02-13T03:40:44;6.80;99.90
16879;DHT22;8556;52.218;9.884;2023-02-13T03:43:28;6.90;99.90
16879;DHT22;8556;52.218;9.884;2023-02-13T03:45:58;6.90;99.90
16879;DHT22;8556;52.218;9.884;2023-02-13T03:48:29;6.80;99.90
16879;DHT22;8556;52.218;9.884;2023-02-13T03:51:18;6.80;99.90
16879;DHT22;8556;52.218;9.884;2023-02-13T03:53:51;6.80;99.90
16879;DHT22;8556;52.218;9.884;2023-02-13T03:56:21;6.80;99.90
16879;DHT22;8556;52.218;9.884;2023-02-13T03:59:08;6.80;99.90
16879;DHT22;8556;52.218;9.884;2023-02-13T04:01:49;6.80;99.90
16879;DHT22;8556;52.218;9.884;2023-02-13T04:04:21;6.80;99.90
16879;DHT22;8556;52.218;9.884;2023-02-13T04:06:52;6.70;99.90
16879;DHT22;8556;52.218;9.884;2023-02-13T04:09:22;6.80;99.90
16879;DHT22;8556;52.218;9.884;2023-02-13T04:11:54;6.80;99.90
16879;DHT22;8556;52.218;9.884;2023-02-13T04:14:24;6.70;99.90
16879;DHT22;8556;52.218;9.884;2023-02-13T04:16:57;6.90;99.90
16879;DHT22;8556;52.218;9.884;2023-02-13T04:19:27;6.90;99.90
16879;DHT22;8556;52.218;9.884;2023-02-13T04:21:56;6.90;99.90
16879;DHT22;8556;52.218;9.884;2023-02-13T04:24:26;6.90;99.90
16879;DHT22;8556;52.218;9.884;2023-02-13T04:26:53;6.90;99.90
16879;DHT22;8556;52.218;9.884;2023-02-13T04:29:22;6.90;99.90
16879;DHT22;8556;52.218;9.884;2023-02-13T04:31:49;6.90;99.90
16879;DHT22;8556;52.218;9.884;2023-02-13T04:34:16;6.90;99.90
16879;DHT22;8556;52.218;9.884;2023-02-13T04:36:43;6.90;99.90
16879;DHT22;8556;52.218;9.884;2023-02-13T04:39:10;6.90;99.90
16879;DHT22;8556;52.218;9.884;2023-02-13T04:41:38;6.90;99.90
16879;DHT22;8556;52.218;9.884;2023-02-13T04:44:05;6.90;99.90
16879;DHT22;8556;52.218;9.884;2023-02-13T04:46:32;7.00;99.90
16879;DHT22;8556;52.218;9.884;2023-02-13T04:48:58;7.00;99.90
16879;DHT22;8556;52.218;9.884;2023-02-13T04:51:25;7.00;99.90
16879;DHT22;8556;52.218;9.884;2023-02-13T04:53:52;6.90;99.90
16879;DHT22;8556;52.218;9.884;2023-02-13T04:56:19;7.00;99.90
16879;DHT22;8556;52.218;9.884;2023-02-13T04:58:47;7.00;99.90
16879;DHT22;8556;52.218;9.884;2023-02-13T05:01:15;7.00;99.90
16879;DHT22;8556;52.218;9.884;2023-02-13T05:03:42;7.00;99.90
16879;DHT22;8556;52.218;9.884;2023-02-13T05:06:09;7.00;99.90
16879;DHT22;8556;52.218;9.884;2023-02-13T05:08:36;7.00;99.90
16879;DHT22;8556;52.218;9.884;2023-02-13T05:11:03;7.00;99.90
16879;DHT22;8556;52.218;9.884;2023-02-13T05:13:30;7.00;99.90
16879;DHT22;8556;52.218;9.884;2023-02-13T05:15:58;7.00;99.90
16879;DHT22;8556;52.218;9.884;2023-02-13T05:18:25;7.00;99.90
16879;DHT22;8556;52.218;9.884;2023-02-13T05:20:52;7.00;99.90
16879;DHT22;8556;52.218;9.884;2023-02-13T05:23:36;7.10;99.90
16879;DHT22;8556;52.218;9.884;2023-02-13T05:26:03;7.00;99.90
16879;DHT22;8556;52.218;9.884;2023-02-13T05:28:30;7.00;99.90
16879;DHT22;8556;52.218;9.884;2023-02-13T05:31:16;7.00;99.90
16879;DHT22;8556;52.218;9.884;2023-02-13T05:33:42;7.10;99.90
16879;DHT22;8556;52.218;9.884;2023-02-13T05:36:09;7.10;99.90
16879;DHT22;8556;52.218;9.884;2023-02-13T05:38:36;7.20;99.90
16879;DHT22;8556;52.218;9.884;2023-02-13T05:41:03;7.20;99.90
16879;DHT22;8556;52.218;9.884;2023-02-13T05:43:30;7.20;99.90
16879;DHT22;8556;52.218;9.884;2023-02-13T05:46:01;7.20;99.90
16879;DHT22;8556;52.218;9.884;2023-02-13T05:48:29;7.20;99.90
16879;DHT22;8556;52.218;9.884;2023-02-13T05:50:56;7.20;99.90
16879;DHT22;8556;52.218;9.884;2023-02-13T05:53:23;7.20;99.90
16879;DHT22;8556;52.218;9.884;2023-02-13T05:55:50;7.20;99.90
16879;DHT22;8556;52.218;9.884;2023-02-13T05:58:17;7.10;99.90
16879;DHT22;8556;52.218;9.884;2023-02-13T06:00:45;7.10;99.90
16879;DHT22;8556;52.218;9.884;2023-02-13T06:03:11;7.10;99.90
16879;DHT22;8556;52.218;9.884;2023-02-13T06:05:40;7.10;99.90
16879;DHT22;8556;52.218;9.884;2023-02-13T06:08:06;7.10;99.90
16879;DHT22;8556;52.218;9.884;2023-02-13T06:10:33;7.10;99.90
16879;DHT22;8556;52.218;9.884;2023-02-13T06:13:00;7.10;99.90
16879;DHT22;8556;52.218;9.884;2023-02-13T06:15:27;7.20;99.90
16879;DHT22;8556;52.218;9.884;2023-02-13T06:17:53;7.10;99.90
16879;DHT22;8556;52.218;9.884;2023-02-13T06:20:20;7.10;99.90
16879;DHT22;8556;52.218;9.884;2023-02-13T06:22:49;7.20;99.90
16879;DHT22;8556;52.218;9.884;2023-02-13T06:25:16;7.20;99.90
16879;DHT22;8556;52.218;9.884;2023-02-13T06:27:43;7.20;99.90
16879;DHT22;8556;52.218;9.884;2023-02-13T06:30:11;7.20;99.90
16879;DHT22;8556;52.218;9.884;2023-02-13T06:32:38;7.20;99.90
16879;DHT22;8556;52.218;9.884;2023-02-13T06:35:05;7.10;99.90
16879;DHT22;8556;52.218;9.884;2023-02-13T06:37:32;7.10;99.90
16879;DHT22;8556;52.218;9.884;2023-02-13T06:40:01;7.10;99.90
16879;DHT22;8556;52.218;9.884;2023-02-13T06:42:28;7.10;99.90
16879;DHT22;8556;52.218;9.884;2023-02-13T06:44:54;7.20;99.90
16879;DHT22;8556;52.218;9.884;2023-02-13T06:47:21;7.10;99.90
16879;DHT22;8556;52.218;9.884;2023-02-13T06:49:48;7.10;99.90
16879;DHT22;8556;52.218;9.884;2023-02-13T06:52:15;7.10;99.90
16879;DHT22;8556;52.218;9.884;2023-02-13T06:54:41;7.10;99.90
16879;DHT22;8556;52.218;9.884;2023-02-13T06:57:10;7.00;99.90
16879;DHT22;8556;52.218;9.884;2023-02-13T06:59:37;7.10;99.90
16879;DHT22;8556;52.218;9.884;2023-02-13T07:02:03;7.10;99.90
16879;DHT22;8556;52.218;9.884;2023-02-13T07:04:30;7.10;99.90
16879;DHT22;8556;52.218;9.884;2023-02-13T07:06:57;7.20;99.90
16879;DHT22;8556;52.218;9.884;2023-02-13T07:09:24;7.10;99.90
16879;DHT22;8556;52.218;9.884;2023-02-13T07:11:50;7.10;99.90
16879;DHT22;8556;52.218;9.884;2023-02-13T07:14:18;7.10;99.90
16879;DHT22;8556;52.218;9.884;2023-02-13T07:16:45;7.10;99.90
16879;DHT22;8556;52.218;9.884;2023-02-13T07:19:12;7.20;99.90
16879;DHT22;8556;52.218;9.884;2023-02-13T07:21:39;7.10;99.90
16879;DHT22;8556;52.218;9.884;2023-02-13T07:24:06;7.20;99.90
16879;DHT22;8556;52.218;9.884;2023-02-13T07:26:33;7.10;99.90
16879;DHT22;8556;52.218;9.884;2023-02-13T07:28:59;7.20;99.90
16879;DHT22;8556;52.218;9.884;2023-02-13T07:31:32;7.10;99.90
16879;DHT22;8556;52.218;9.884;2023-02-13T07:33:59;7.30;99.90
16879;DHT22;8556;52.218;9.884;2023-02-13T07:36:26;7.10;99.90
16879;DHT22;8556;52.218;9.884;2023-02-13T07:38:52;7.10;99.90
16879;DHT22;8556;52.218;9.884;2023-02-13T07:41:19;7.20;99.90
16879;DHT22;8556;52.218;9.884;2023-02-13T07:43:50;7.30;99.90
16879;DHT22;8556;52.218;9.884;2023-02-13T07:46:17;7.20;99.90
16879;DHT22;8556;52.218;9.884;2023-02-13T07:48:45;7.20;99.90
16879;DHT22;8556;52.218;9.884;2023-02-13T07:51:12;7.20;99.90
16879;DHT22;8556;52.218;9.884;2023-02-13T07:53:38;7.20;99.90
16879;DHT22;8556;52.218;9.884;2023-02-13T07:56:06;7.20;99.90
16879;DHT22;8556;52.218;9.884;2023-02-13T07:58:32;7.20;99.90
16879;DHT22;8556;52.218;9.884;2023-02-13T08:01:05;7.20;99.90
16879;DHT22;8556;52.218;9.884;2023-02-13T08:03:32;7.20;99.90
16879;DHT22;8556;52.218;9.884;2023-02-13T08:06:00;7.20;99.90
16879;DHT22;8556;52.218;9.884;2023-02-13T08:08:27;7.20;99.90
16879;DHT22;8556;52.218;9.884;2023-02-13T08:10:54;7.20;99.90
16879;DHT22;8556;52.218;9.884;2023-02-13T08:13:39;7.20;99.90
16879;DHT22;8556;52.218;9.884;2023-02-13T08:16:06;7.20;99.90
16879;DHT22;8556;52.218;9.884;2023-02-13T08:18:33;7.30;99.90
16879;DHT22;8556;52.218;9.884;2023-02-13T08:21:02;7.20;99.90
16879;DHT22;8556;52.218;9.884;2023-02-13T08:23:29;7.30;99.90
16879;DHT22;8556;52.218;9.884;2023-02-13T08:25:58;7.20;99.90
16879;DHT22;8556;52.218;9.884;2023-02-13T08:28:25;7.30;99.90
16879;DHT22;8556;52.218;9.884;2023-02-13T08:30:52;7.40;99.90
16879;DHT22;8556;52.218;9.884;2023-02-13T08:33:19;7.40;99.90
16879;DHT22;8556;52.218;9.884;2023-02-13T08:35:46;7.30;99.90
16879;DHT22;8556;52.218;9.884;2023-02-13T08:38:14;7.50;99.90
16879;DHT22;8556;52.218;9.884;2023-02-13T08:40:41;7.40;99.90
16879;DHT22;8556;52.218;9.884;2023-02-13T08:43:08;7.50;99.90
16879;DHT22;8556;52.218;9.884;2023-02-13T08:45:34;7.60;99.90
16879;DHT22;8556;52.218;9.884;2023-02-13T08:48:01;7.60;99.90
16879;DHT22;8556;52.218;9.884;2023-02-13T08:50:29;7.70;99.90
16879;DHT22;8556;52.218;9.884;2023-02-13T08:52:57;7.60;99.90
16879;DHT22;8556;52.218;9.884;2023-02-13T08:55:26;7.70;99.90
16879;DHT22;8556;52.218;9.884;2023-02-13T08:57:53;7.70;99.90
16879;DHT22;8556;52.218;9.884;2023-02-13T09:00:20;7.80;99.90
16879;DHT22;8556;52.218;9.884;2023-02-13T09:02:47;7.80;99.90
16879;DHT22;8556;52.218;9.884;2023-02-13T09:05:14;7.80;99.90
16879;DHT22;8556;52.218;9.884;2023-02-13T09:07:41;7.80;99.90
16879;DHT22;8556;52.218;9.884;2023-02-13T09:10:08;7.80;99.90
16879;DHT22;8556;52.218;9.884;2023-02-13T09:12:36;7.80;99.90
16879;DHT22;8556;52.218;9.884;2023-02-13T09:15:04;7.90;99.90
16879;DHT22;8556;52.218;9.884;2023-02-13T09:17:31;7.80;99.90
16879;DHT22;8556;52.218;9.884;2023-02-13T09:19:57;7.80;99.90
16879;DHT22;8556;52.218;9.884;2023-02-13T09:22:24;8.00;99.90
16879;DHT22;8556;52.218;9.884;2023-02-13T09:24:51;8.00;99.90
16879;DHT22;8556;52.218;9.884;2023-02-13T09:27:18;7.90;99.90
16879;DHT22;8556;52.218;9.884;2023-02-13T09:29:46;8.00;99.90
16879;DHT22;8556;52.218;9.884;2023-02-13T09:32:13;8.00;99.90
16879;DHT22;8556;52.218;9.884;2023-02-13T09:34:41;8.10;99.90
16879;DHT22;8556;52.218;9.884;2023-02-13T09:37:08;8.10;99.90
16879;DHT22;8556;52.218;9.884;2023-02-13T09:39:34;8.20;99.90
16879;DHT22;8556;52.218;9.884;2023-02-13T09:42:02;8.20;99.90
16879;DHT22;8556;52.218;9.884;2023-02-13T09:44:34;8.10;99.90
16879;DHT22;8556;52.218;9.884;2023-02-13T09:47:10;8.20;99.90
16879;DHT22;8556;52.218;9.884;2023-02-13T09:49:43;8.20;99.90
16879;DHT22;8556;52.218;9.884;2023-02-13T09:52:10;8.20;99.90
16879;DHT22;8556;52.218;9.884;2023-02-13T09:54:37;8.30;99.90
16879;DHT22;8556;52.218;9.884;2023-02-13T09:57:11;8.30;99.90
16879;DHT22;8556;52.218;9.884;2023-02-13T09:59:51;8.30;99.90
16879;DHT22;8556;52.218;9.884;2023-02-13T10:02:44;8.40;99.90
16879;DHT22;8556;52.218;9.884;2023-02-13T10:05:22;8.50;99.90
16879;DHT22;8556;52.218;9.884;2023-02-13T10:07:57;8.50;99.90
16879;DHT22;8556;52.218;9.884;2023-02-13T10:10:31;8.50;99.90
16879;DHT22;8556;52.218;9.884;2023-02-13T10:13:07;8.50;99.90
16879;DHT22;8556;52.218;9.884;2023-02-13T10:15:47;8.40;99.90
16879;DHT22;8556;52.218;9.884;2023-02-13T10:18:17;8.50;99.90
16879;DHT22;8556;52.218;9.884;2023-02-13T10:20:47;8.60;99.90
16879;DHT22;8556;52.218;9.884;2023-02-13T10:23:20;8.50;99.90
16879;DHT22;8556;52.218;9.884;2023-02-13T10:25:53;8.60;99.90
16879;DHT22;8556;52.218;9.884;2023-02-13T10:28:29;8.70;99.90
16879;DHT22;8556;52.218;9.884;2023-02-13T10:31:01;8.70;99.90
16879;DHT22;8556;52.218;9.884;2023-02-13T10:33:33;8.70;99.90
16879;DHT22;8556;52.218;9.884;2023-02-13T10:36:04;8.70;99.90
16879;DHT22;8556;52.218;9.884;2023-02-13T10:38:34;8.70;99.90
16879;DHT22;8556;52.218;9.884;2023-02-13T10:41:11;8.70;99.90
16879;DHT22;8556;52.218;9.884;2023-02-13T10:43:56;8.70;99.90
16879;DHT22;8556;52.218;9.884;2023-02-13T10:46:32;8.80;99.90
16879;DHT22;8556;52.218;9.884;2023-02-13T10:49:26;9.00;99.90
16879;DHT22;8556;52.218;9.884;2023-02-13T10:52:04;8.90;99.90
16879;DHT22;8556;52.218;9.884;2023-02-13T10:55:01;8.90;99.90
16879;DHT22;8556;52.218;9.884;2023-02-13T10:57:40;9.00;99.90
16879;DHT22;8556;52.218;9.884;2023-02-13T11:00:17;9.00;99.90
16879;DHT22;8556;52.218;9.884;2023-02-13T11:02:48;8.90;99.90
16879;DHT22;8556;52.218;9.884;2023-02-13T11:05:19;9.00;99.90
16879;DHT22;8556;52.218;9.884;2023-02-13T11:07:48;8.90;99.90
16879;DHT22;8556;52.218;9.884;2023-02-13T11:10:17;8.70;99.90
16879;DHT22;8556;52.218;9.884;2023-02-13T11:12:45;9.00;99.90
16879;DHT22;8556;52.218;9.884;2023-02-13T11:15:24;9.10;99.90
16879;DHT22;8556;52.218;9.884;2023-02-13T11:17:53;9.00;99.90
16879;DHT22;8556;52.218;9.884;2023-02-13T11:20:29;9.20;99.90
16879;DHT22;8556;52.218;9.884;2023-02-13T11:25:56;9.10;99.90
16879;DHT22;8556;52.218;9.884;2023-02-13T11:28:27;9.00;99.90
16879;DHT22;8556;52.218;9.884;2023-02-13T11:31:09;9.10;99.90
16879;DHT22;8556;52.218;9.884;2023-02-13T11:33:36;9.10;99.90
16879;DHT22;8556;52.218;9.884;2023-02-13T11:36:07;9.00;99.90
16879;DHT22;8556;52.218;9.884;2023-02-13T11:38:34;9.10;99.90
16879;DHT22;8556;52.218;9.884;2023-02-13T11:41:05;8.90;99.90
16879;DHT22;8556;52.218;9.884;2023-02-13T11:43:35;8.90;99.90
16879;DHT22;8556;52.218;9.884;2023-02-13T11:46:05;9.00;99.90
16879;DHT22;8556;52.218;9.884;2023-02-13T11:48:33;9.10;99.90
16879;DHT22;8556;52.218;9.884;2023-02-13T11:51:00;9.10;99.90
16879;DHT22;8556;52.218;9.884;2023-02-13T11:53:31;9.30;99.90
16879;DHT22;8556;52.218;9.884;2023-02-13T11:56:04;9.30;99.90
16879;DHT22;8556;52.218;9.884;2023-02-13T11:58:31;9.30;99.90
16879;DHT22;8556;52.218;9.884;2023-02-13T12:01:22;9.40;99.90
16879;DHT22;8556;52.218;9.884;2023-02-13T12:04:14;9.20;99.90
16879;DHT22;8556;52.218;9.884;2023-02-13T12:06:58;9.20;99.90
16879;DHT22;8556;52.218;9.884;2023-02-13T12:09:28;9.20;99.90
16879;DHT22;8556;52.218;9.884;2023-02-13T12:11:57;9.10;99.90
16879;DHT22;8556;52.218;9.884;2023-02-13T12:14:30;9.10;99.90
16879;DHT22;8556;52.218;9.884;2023-02-13T12:17:01;9.30;99.90
16879;DHT22;8556;52.218;9.884;2023-02-13T12:19:34;9.30;99.90
16879;DHT22;8556;52.218;9.884;2023-02-13T12:22:15;9.40;99.90
16879;DHT22;8556;52.218;9.884;2023-02-13T12:24:56;9.30;99.90
16879;DHT22;8556;52.218;9.884;2023-02-13T12:27:31;9.20;99.90
16879;DHT22;8556;52.218;9.884;2023-02-13T12:30:13;9.20;99.90
16879;DHT22;8556;52.218;9.884;2023-02-13T12:32:49;9.30;99.90
16879;DHT22;8556;52.218;9.884;2023-02-13T12:35:30;9.30;99.90
16879;DHT22;8556;52.218;9.884;2023-02-13T12:38:01;9.40;99.90
16879;DHT22;8556;52.218;9.884;2023-02-13T12:40:41;9.50;99.90
16879;DHT22;8556;52.218;9.884;2023-02-13T12:43:38;9.70;99.90
16879;DHT22;8556;52.218;9.884;2023-02-13T12:46:15;9.70;99.90
16879;DHT22;8556;52.218;9.884;2023-02-13T12:48:50;9.70;99.90
16879;DHT22;8556;52.218;9.884;2023-02-13T12:51:40;9.60;99.90
16879;DHT22;8556;52.218;9.884;2023-02-13T12:57:13;9.60;99.90
16879;DHT22;8556;52.218;9.884;2023-02-13T12:59:54;9.50;99.90
16879;DHT22;8556;52.218;9.884;2023-02-13T13:02:43;9.70;99.90
16879;DHT22;8556;52.218;9.884;2023-02-13T13:05:24;9.70;99.90
16879;DHT22;8556;52.218;9.884;2023-02-13T13:08:18;9.60;99.90
16879;DHT22;8556;52.218;9.884;2023-02-13T13:10:54;9.60;99.90
16879;DHT22;8556;52.218;9.884;2023-02-13T13:13:37;9.50;99.90
16879;DHT22;8556;52.218;9.884;2023-02-13T13:16:11;9.50;99.90
16879;DHT22;8556;52.218;9.884;2023-02-13T13:18:54;9.70;99.90
16879;DHT22;8556;52.218;9.884;2023-02-13T13:21:31;9.50;99.90
16879;DHT22;8556;52.218;9.884;2023-02-13T13:24:06;9.40;99.90
16879;DHT22;8556;52.218;9.884;2023-02-13T13:26:37;9.30;99.90
16879;DHT22;8556;52.218;9.884;2023-02-13T13:29:11;9.40;99.90
16879;DHT22;8556;52.218;9.884;2023-02-13T13:31:44;9.30;99.90
16879;DHT22;8556;52.218;9.884;2023-02-13T13:34:18;9.40;99.90
16879;DHT22;8556;52.218;9.884;2023-02-13T13:36:49;9.40;99.90
16879;DHT22;8556;52.218;9.884;2023-02-13T13:39:28;9.30;99.90
16879;DHT22;8556;52.218;9.884;2023-02-13T13:42:04;9.40;99.90
16879;DHT22;8556;52.218;9.884;2023-02-13T13:44:52;9.50;99.90
16879;DHT22;8556;52.218;9.884;2023-02-13T13:47:25;9.40;99.90
16879;DHT22;8556;52.218;9.884;2023-02-13T13:49:57;9.40;99.90
16879;DHT22;8556;52.218;9.884;2023-02-13T13:52:26;9.50;99.90
16879;DHT22;8556;52.218;9.884;2023-02-13T13:54:54;9.40;99.90
16879;DHT22;8556;52.218;9.884;2023-02-13T13:57:22;9.40;99.90
16879;DHT22;8556;52.218;9.884;2023-02-13T14:02:44;9.40;99.90
16879;DHT22;8556;52.218;9.884;2023-02-13T14:05:27;9.40;99.90
16879;DHT22;8556;52.218;9.884;2023-02-13T14:07:55;9.30;99.90
16879;DHT22;8556;52.218;9.884;2023-02-13T14:11:00;9.40;99.90
16879;DHT22;8556;52.218;9.884;2023-02-13T14:13:30;9.40;99.90
16879;DHT22;8556;52.218;9.884;2023-02-13T14:15:59;9.40;99.90
16879;DHT22;8556;52.218;9.884;2023-02-13T14:18:26;9.30;99.90
16879;DHT22;8556;52.218;9.884;2023-02-13T14:20:55;9.30;99.90
16879;DHT22;8556;52.218;9.884;2023-02-13T14:23:31;9.40;99.90
16879;DHT22;8556;52.218;9.884;2023-02-13T14:26:33;9.20;99.90
16879;DHT22;8556;52.218;9.884;2023-02-13T14:29:22;9.30;99.90
16879;DHT22;8556;52.218;9.884;2023-02-13T14:31:59;9.00;99.90
16879;DHT22;8556;52.218;9.884;2023-02-13T14:34:28;9.20;99.90
16879;DHT22;8556;52.218;9.884;2023-02-13T14:37:17;9.20;99.90
16879;DHT22;8556;52.218;9.884;2023-02-13T14:40:32;9.20;99.90
16879;DHT22;8556;52.218;9.884;2023-02-13T14:43:33;9.10;99.90
16879;DHT22;8556;52.218;9.884;2023-02-13T14:46:07;9.10;99.90
16879;DHT22;8556;52.218;9.884;2023-02-13T14:48:40;9.20;99.90
16879;DHT22;8556;52.218;9.884;2023-02-13T14:51:16;9.20;99.90
16879;DHT22;8556;52.218;9.884;2023-02-13T14:53:50;8.90;99.90
16879;DHT22;8556;52.218;9.884;2023-02-13T14:56:19;9.20;99.90
16879;DHT22;8556;52.218;9.884;2023-02-13T14:58:50;8.90;99.90
16879;DHT22;8556;52.218;9.884;2023-02-13T15:01:27;8.90;99.90
16879;DHT22;8556;52.218;9.884;2023-02-13T15:04:00;9.10;99.90
16879;DHT22;8556;52.218;9.884;2023-02-13T15:06:32;9.30;99.90
16879;DHT22;8556;52.218;9.884;2023-02-13T15:09:02;8.90;99.90
16879;DHT22;8556;52.218;9.884;2023-02-13T15:11:37;9.10;99.90
16879;DHT22;8556;52.218;9.884;2023-02-13T15:14:21;8.90;99.90
16879;DHT22;8556;52.218;9.884;2023-02-13T15:16:53;8.80;99.90
16879;DHT22;8556;52.218;9.884;2023-02-13T15:19:23;8.70;99.90
16879;DHT22;8556;52.218;9.884;2023-02-13T15:21:56;8.70;99.90
16879;DHT22;8556;52.218;9.884;2023-02-13T15:24:24;8.60;99.90
16879;DHT22;8556;52.218;9.884;2023-02-13T15:27:02;8.60;99.90
16879;DHT22;8556;52.218;9.884;2023-02-13T15:29:30;8.50;99.90
16879;DHT22;8556;52.218;9.884;2023-02-13T15:31:58;8.50;99.90
16879;DHT22;8556;52.218;9.884;2023-02-13T15:34:28;8.50;99.90
16879;DHT22;8556;52.218;9.884;2023-02-13T15:36:56;8.40;99.90
16879;DHT22;8556;52.218;9.884;2023-02-13T15:39:25;8.20;99.90
16879;DHT22;8556;52.218;9.884;2023-02-13T15:41:54;8.10;99.90
16879;DHT22;8556;52.218;9.884;2023-02-13T15:44:25;8.10;99.90
16879;DHT22;8556;52.218;9.884;2023-02-13T15:46:54;8.10;99.90
16879;DHT22;8556;52.218;9.884;2023-02-13T15:49:25;8.00;99.90
16879;DHT22;8556;52.218;9.884;2023-02-13T15:52:02;7.80;99.90
16879;DHT22;8556;52.218;9.884;2023-02-13T15:54:31;7.90;99.90
16879;DHT22;8556;52.218;9.884;2023-02-13T15:57:02;7.80;99.90
16879;DHT22;8556;52.218;9.884;2023-02-13T15:59:33;7.80;99.90
16879;DHT22;8556;52.218;9.884;2023-02-13T16:02:01;7.80;99.90
16879;DHT22;8556;52.218;9.884;2023-02-13T16:04:29;7.90;99.90
16879;DHT22;8556;52.218;9.884;2023-02-13T16:06:56;7.70;99.90
16879;DHT22;8556;52.218;9.884;2023-02-13T16:09:29;7.60;99.90
16879;DHT22;8556;52.218;9.884;2023-02-13T16:12:01;7.60;99.90
16879;DHT22;8556;52.218;9.884;2023-02-13T16:14:30;7.50;99.90
16879;DHT22;8556;52.218;9.884;2023-02-13T16:17:00;7.50;99.90
16879;DHT22;8556;52.218;9.884;2023-02-13T16:19:33;7.40;99.90
16879;DHT22;8556;52.218;9.884;2023-02-13T16:22:05;7.50;99.90
16879;DHT22;8556;52.218;9.884;2023-02-13T16:24:36;7.50;99.90
16879;DHT22;8556;52.218;9.884;2023-02-13T16:27:11;7.40;99.90
16879;DHT22;8556;52.218;9.884;2023-02-13T16:29:44;7.40;99.90
16879;DHT22;8556;52.218;9.884;2023-02-13T16:32:21;7.40;99.90
16879;DHT22;8556;52.218;9.884;2023-02-13T16:34:53;7.40;99.90
16879;DHT22;8556;52.218;9.884;2023-02-13T16:37:30;7.30;99.90
16879;DHT22;8556;52.218;9.884;2023-02-13T16:43:36;7.10;99.90
16879;DHT22;8556;52.218;9.884;2023-02-13T16:46:34;7.10;99.90
16879;DHT22;8556;52.218;9.884;2023-02-13T16:49:18;7.00;99.90
16879;DHT22;8556;52.218;9.884;2023-02-13T16:51:52;6.90;99.90